Time;durP1;ratioP1;P1;durP2;ratioP2;P2;SDS_P1;SDS_P2;PMS_P1;PMS_P2;Temp;Humidity;BMP_temperature;BMP_pressure;BME280_temperature;BME280_humidity;BME280_pressure;Samples;Min_cycle;Max_cycle;Signal;HPM_P1;HPM_P2
2022/02/11 00:00:36;;;;;;;3.28;1.48;;;;;;;1.32;99.76;99927.13;5009655;28;20147;-58
2022/02/11 00:07:56;;;;;;;3.28;1.40;;;;;;;1.34;100.00;99951.56;5020708;28;20121;-58
2022/02/11 00:10:22;;;;;;;3.42;1.42;;;;;;;1.31;100.00;99951.91;5011472;28;20052;-58
2022/02/11 00:12:47;;;;;;;1.60;1.50;;;;;;;1.39;100.00;99933.41;5012414;28;20030;-58
2022/02/11 00:17:57;;;;;;;15.10;2.35;;;;;;;1.43;100.00;99947.94;5014236;28;20388;-58
2022/02/11 00:20:22;;;;;;;3.28;1.90;;;;;;;1.38;99.41;99950.25;5010199;28;20042;-58
2022/02/11 00:22:48;;;;;;;5.40;1.80;;;;;;;1.39;99.80;99949.25;5012468;28;20026;-58
2022/02/11 00:25:14;;;;;;;1.65;1.40;;;;;;;1.42;99.75;99948.94;5014962;28;20463;-59
2022/02/11 00:33:21;;;;;;;17.77;3.17;;;;;;;1.41;100.00;99941.97;5010580;28;20143;-59
2022/02/11 00:35:55;;;;;;;6.45;1.75;;;;;;;1.44;100.00;99935.53;5021329;28;20077;-59
2022/02/11 00:38:32;;;;;;;2.65;1.52;;;;;;;1.48;100.00;99929.78;5012039;28;20113;-59
2022/02/11 01:02:45;;;;;;;2.15;1.60;;;;;;;1.32;99.28;99952.72;5016197;28;20145;-59
2022/02/11 01:05:11;;;;;;;2.92;1.85;;;;;;;1.25;98.79;99958.66;5010149;28;20550;-59
2022/02/11 01:07:36;;;;;;;1.90;1.60;;;;;;;1.28;99.38;99957.50;5009703;28;20037;-59
2022/02/11 01:10:02;;;;;;;4.40;2.40;;;;;;;1.25;98.97;99963.94;5010067;28;20052;-59
2022/02/11 01:12:29;;;;;;;3.05;1.90;;;;;;;1.31;98.92;99965.09;5011389;28;20026;-59
2022/02/11 01:14:54;;;;;;;2.40;1.80;;;;;;;1.27;99.07;99966.41;5013154;28;20808;-59
2022/02/11 01:20:04;;;;;;;3.25;1.75;;;;;;;1.15;99.21;99967.72;5031665;28;20472;-59
2022/02/11 01:22:46;;;;;;;2.38;1.70;;;;;;;1.06;99.02;99954.50;5010532;28;20053;-59
2022/02/11 01:28:33;;;;;;;4.63;2.53;;;;;;;1.03;99.88;99946.94;4977004;28;20042;-59
2022/02/11 01:31:24;;;;;;;7.63;2.72;;;;;;;1.17;100.00;99947.25;4979805;28;20042;-59
2022/02/11 01:47:25;;;;;;;3.72;2.42;;;;;;;1.08;99.78;99936.69;5010049;28;20096;-59
2022/02/11 02:03:46;;;;;;;4.78;2.95;;;;;;;1.03;100.00;99960.13;5008988;28;20115;-59
2022/02/11 02:08:44;;;;;;;5.53;3.17;;;;;;;1.07;100.00;99966.75;5014735;28;20037;-58
2022/02/11 02:11:38;;;;;;;9.00;4.70;;;;;;;1.08;99.04;99957.81;5030646;28;20044;-59
2022/02/11 02:25:01;;;;;;;12.52;5.50;;;;;;;1.22;95.82;99958.16;4991772;28;20514;-60
2022/02/11 03:34:54;;;;;;;12.65;5.75;;;;;;;0.23;96.76;99978.16;5016037;28;20037;-59
2022/02/11 03:51:27;;;;;;;13.98;5.35;;;;;;;0.36;95.78;99988.28;4992474;28;20048;-59
2022/02/11 03:57:02;;;;;;;15.57;5.90;;;;;;;0.43;94.89;99989.31;4993194;28;20108;-59
2022/02/11 04:56:34;;;;;;;19.98;7.55;;;;;;;0.30;93.00;100089.09;5011032;28;20439;-59
2022/02/11 05:01:45;;;;;;;21.27;7.40;;;;;;;0.24;93.54;100077.38;5015131;28;20133;-59
2022/02/11 05:04:10;;;;;;;18.42;7.68;;;;;;;0.23;93.96;100081.00;5011005;28;20056;-59
2022/02/11 05:06:36;;;;;;;14.68;7.13;;;;;;;0.23;93.38;100067.00;5009757;28;20030;-59
2022/02/11 05:09:02;;;;;;;18.08;6.68;;;;;;;0.30;92.74;100053.03;5019723;28;20041;-59
2022/02/11 05:11:28;;;;;;;16.33;6.43;;;;;;;0.38;91.97;100054.88;5010565;28;20750;-59
2022/02/11 05:13:53;;;;;;;18.27;7.50;;;;;;;0.41;91.80;100062.47;5024335;28;20034;-59
2022/02/11 05:16:19;;;;;;;15.50;6.93;;;;;;;0.46;91.93;100062.00;5024797;28;20076;-59
2022/02/11 05:18:44;;;;;;;15.25;6.00;;;;;;;0.55;91.03;100064.53;5009446;28;20045;-58
2022/02/11 05:21:09;;;;;;;23.52;6.30;;;;;;;0.64;90.46;100071.50;5010151;28;20080;-59
2022/02/11 05:23:35;;;;;;;16.17;6.88;;;;;;;0.61;90.50;100082.38;5010561;28;20026;-59
2022/02/11 05:26:00;;;;;;;21.00;7.22;;;;;;;0.61;91.11;100079.72;5014545;28;20060;-59
2022/02/11 05:28:26;;;;;;;19.77;6.93;;;;;;;0.70;90.76;100092.94;5020116;28;20034;-59
2022/02/11 05:30:52;;;;;;;19.38;6.88;;;;;;;0.59;90.82;100105.44;5010193;28;20042;-59
2022/02/11 05:33:20;;;;;;;15.25;5.78;;;;;;;0.59;91.25;100109.88;5010374;28;20091;-59
2022/02/11 05:35:45;;;;;;;19.88;7.35;;;;;;;0.52;91.30;100114.97;5010334;28;20050;-59
2022/02/11 05:38:11;;;;;;;27.77;6.78;;;;;;;0.59;92.21;100110.72;5010236;28;20387;-57
2022/02/11 05:40:36;;;;;;;29.77;7.57;;;;;;;0.67;91.75;100112.56;5016649;28;20365;-59
2022/02/11 05:43:01;;;;;;;16.13;7.47;;;;;;;0.71;91.81;100113.91;5014858;28;20030;-59
2022/02/11 05:45:27;;;;;;;15.20;6.82;;;;;;;0.77;91.51;100109.81;5016742;28;20041;-59
2022/02/11 05:47:52;;;;;;;17.40;6.35;;;;;;;0.86;91.14;100122.91;5014678;28;20037;-59
2022/02/11 05:50:18;;;;;;;13.43;6.68;;;;;;;0.98;90.39;100117.34;5018460;28;20417;-59
2022/02/11 05:52:43;;;;;;;23.80;6.50;;;;;;;1.03;90.17;100123.81;5013772;28;20040;-59
2022/02/11 05:55:08;;;;;;;14.50;6.38;;;;;;;1.08;90.77;100118.88;5009524;28;20042;-58
2022/02/11 05:57:34;;;;;;;15.02;5.97;;;;;;;1.14;89.95;100124.50;5009729;28;20422;-58
2022/02/11 06:00:01;;;;;;;12.75;5.50;;;;;;;1.23;89.81;100131.47;5010223;28;20041;-59
2022/02/11 06:02:27;;;;;;;19.48;7.50;;;;;;;1.18;89.90;100128.50;4988995;28;20106;-58
2022/02/11 06:04:52;;;;;;;17.50;6.75;;;;;;;1.16;90.43;100133.09;4990087;28;20398;-58
2022/02/11 06:07:18;;;;;;;14.00;6.45;;;;;;;1.18;90.16;100134.59;5013770;28;20052;-58
2022/02/11 06:09:43;;;;;;;16.92;6.95;;;;;;;1.16;89.71;100133.91;5018488;28;20718;-59
2022/02/11 06:12:09;;;;;;;22.77;7.13;;;;;;;1.18;89.57;100142.50;5009482;28;20069;-59
2022/02/11 06:14:38;;;;;;;17.00;6.97;;;;;;;1.26;89.83;100144.34;5010570;28;20057;-58
2022/02/11 06:17:04;;;;;;;26.13;7.82;;;;;;;1.21;90.25;100151.94;5014110;28;20034;-58
2022/02/11 06:19:30;;;;;;;17.65;6.15;;;;;;;1.32;90.41;100153.44;5009388;28;20046;-59
2022/02/11 06:21:55;;;;;;;17.08;6.05;;;;;;;1.44;89.14;100160.91;5008873;28;20682;-60
2022/02/11 06:24:20;;;;;;;21.02;6.22;;;;;;;1.42;89.05;100164.72;5013128;28;20022;-60
2022/02/11 06:26:46;;;;;;;18.83;6.85;;;;;;;1.39;89.88;100155.28;5010870;28;20042;-59
2022/02/11 06:29:13;;;;;;;15.00;5.95;;;;;;;1.48;89.74;100150.88;5009725;28;20504;-58
2022/02/11 06:31:38;;;;;;;16.13;6.35;;;;;;;1.43;89.92;100155.81;5021277;28;20038;-59
2022/02/11 06:34:05;;;;;;;17.02;6.25;;;;;;;1.47;89.18;100168.53;5011937;28;20037;-57
2022/02/11 06:36:30;;;;;;;13.65;6.13;;;;;;;1.47;90.04;100165.06;5013993;28;20053;-58
2022/02/11 06:38:55;;;;;;;24.40;6.22;;;;;;;1.42;88.90;100180.56;5010170;28;20044;-58
2022/02/11 06:41:21;;;;;;;19.13;5.68;;;;;;;1.36;89.14;100192.59;5008669;28;20045;-58
2022/02/11 06:43:46;;;;;;;15.00;5.97;;;;;;;1.36;90.53;100186.50;5014462;28;20029;-58
2022/02/11 06:46:12;;;;;;;15.13;6.00;;;;;;;1.41;90.17;100195.59;5007528;28;20708;-58
2022/02/11 06:48:37;;;;;;;18.35;6.25;;;;;;;1.39;89.51;100205.47;5015010;28;20543;-58
2022/02/11 06:51:03;;;;;;;14.00;5.50;;;;;;;1.47;89.38;100213.47;5008901;28;20045;-58
2022/02/11 06:53:28;;;;;;;21.95;6.38;;;;;;;1.57;90.29;100225.69;5009299;28;20116;-59
2022/02/11 06:55:53;;;;;;;20.48;6.43;;;;;;;1.56;90.50;100208.19;5009064;28;20497;-58
2022/02/11 06:58:20;;;;;;;15.63;5.72;;;;;;;1.46;90.04;100219.72;5009304;28;20076;-59
2022/02/11 07:00:48;;;;;;;18.25;6.70;;;;;;;1.49;89.38;100226.50;5008216;28;20049;-58
2022/02/11 07:03:13;;;;;;;14.90;6.25;;;;;;;1.61;89.51;100234.97;5027333;28;20112;-58
2022/02/11 07:05:39;;;;;;;16.60;5.65;;;;;;;1.58;89.31;100243.22;5008947;28;20041;-59
2022/02/11 07:08:05;;;;;;;22.42;5.85;;;;;;;1.58;89.61;100253.78;5012149;28;20025;-58
2022/02/11 07:10:30;;;;;;;16.58;6.65;;;;;;;1.58;89.93;100264.38;5011480;28;20053;-59
2022/02/11 07:12:56;;;;;;;15.15;5.97;;;;;;;1.64;90.16;100272.47;5014284;28;20033;-58
2022/02/11 07:15:21;;;;;;;17.48;6.75;;;;;;;1.73;90.33;100283.91;5015684;28;20038;-59
2022/02/11 07:17:47;;;;;;;22.10;7.85;;;;;;;1.67;90.25;100295.09;5014984;28;20034;-59
2022/02/11 07:20:12;;;;;;;20.77;7.57;;;;;;;1.85;89.53;100295.03;5015015;28;20403;-59
2022/02/11 07:22:38;;;;;;;23.38;7.47;;;;;;;1.88;88.74;100292.88;5021105;28;20052;-60
2022/02/11 07:25:12;;;;;;;19.20;8.18;;;;;;;1.91;89.34;100300.50;5014549;28;20041;-59
2022/02/11 07:27:38;;;;;;;19.83;7.18;;;;;;;1.91;89.11;100305.78;5015270;28;20076;-58
2022/02/11 07:30:04;;;;;;;15.73;6.60;;;;;;;1.89;89.67;100309.56;5021317;28;20037;-58
2022/02/11 07:32:29;;;;;;;26.65;8.20;;;;;;;1.85;90.14;100319.66;5018258;28;20111;-59
2022/02/11 07:34:57;;;;;;;15.82;6.00;;;;;;;1.98;90.07;100329.78;5015955;28;20431;-59
2022/02/11 07:37:23;;;;;;;16.42;6.22;;;;;;;1.98;89.99;100324.50;5014908;28;20681;-58
2022/02/11 07:39:49;;;;;;;18.80;6.70;;;;;;;2.03;89.44;100331.94;5015533;28;20529;-58
2022/02/11 07:42:14;;;;;;;19.08;8.15;;;;;;;2.12;89.95;100333.59;5014941;28;20042;-58
2022/02/11 07:44:40;;;;;;;14.98;6.15;;;;;;;2.22;88.48;100339.63;5016980;28;20030;-58
2022/02/11 07:47:05;;;;;;;16.70;6.38;;;;;;;2.26;88.20;100334.81;5014710;28;20034;-59
2022/02/11 07:49:32;;;;;;;15.80;6.35;;;;;;;2.33;87.15;100326.06;5014214;28;20108;-58
2022/02/11 07:51:58;;;;;;;26.75;10.05;;;;;;;2.42;87.01;100339.31;5015462;28;20203;-58
2022/02/11 07:54:23;;;;;;;14.07;5.72;;;;;;;2.63;85.23;100337.03;5017200;28;20065;-58
2022/02/11 07:56:49;;;;;;;21.75;5.90;;;;;;;2.77;84.99;100348.78;5018987;28;20050;-59
2022/02/11 07:59:14;;;;;;;16.05;6.50;;;;;;;2.87;86.34;100352.13;5017280;28;20041;-59
2022/02/11 08:01:40;;;;;;;19.20;5.40;;;;;;;2.84;84.41;100351.63;5020160;28;20061;-59
2022/02/11 08:04:05;;;;;;;20.73;5.20;;;;;;;3.08;83.34;100364.88;5014127;28;20037;-59
2022/02/11 08:06:31;;;;;;;16.75;4.90;;;;;;;3.33;82.95;100367.50;5014822;28;20045;-59
2022/02/11 08:08:56;;;;;;;18.77;5.55;;;;;;;3.22;82.38;100372.16;5015027;28;20084;-59
2022/02/11 08:11:22;;;;;;;54.20;26.92;;;;;;;3.14;82.80;100381.91;5019067;28;20053;-59
2022/02/11 08:13:47;;;;;;;19.20;5.40;;;;;;;3.02;82.64;100381.41;5022632;28;20035;-59
2022/02/11 08:16:12;;;;;;;12.45;5.20;;;;;;;2.89;83.61;100378.44;5012805;28;20053;-59
2022/02/11 08:18:38;;;;;;;21.65;5.22;;;;;;;2.96;83.53;100382.09;5013054;28;20026;-58
2022/02/11 08:21:03;;;;;;;15.90;4.40;;;;;;;2.81;83.79;100380.06;5014982;28;20045;-58
2022/02/11 08:23:29;;;;;;;21.95;6.68;;;;;;;2.80;84.28;100391.66;5022858;28;20030;-59
2022/02/11 08:25:54;;;;;;;16.20;4.38;;;;;;;2.88;82.85;100374.97;5017728;28;20409;-58
2022/02/11 08:28:20;;;;;;;18.67;7.28;;;;;;;2.93;82.82;100385.06;5016361;28;20045;-58
2022/02/11 08:30:49;;;;;;;20.02;5.32;;;;;;;2.87;84.16;100391.84;5015730;28;20045;-58
2022/02/11 08:33:15;;;;;;;15.10;3.95;;;;;;;2.87;83.37;100385.72;5011309;28;20030;-58
2022/02/11 08:35:41;;;;;;;19.88;5.32;;;;;;;3.06;83.17;100392.53;5011861;28;20802;-58
2022/02/11 08:38:06;;;;;;;19.83;4.50;;;;;;;3.01;82.36;100395.66;5018366;28;20073;-58
2022/02/11 08:40:35;;;;;;;19.65;6.25;;;;;;;3.03;82.30;100404.28;5016798;28;20041;-60
2022/02/11 08:43:01;;;;;;;16.80;5.43;;;;;;;3.12;82.55;100419.19;5024068;28;20431;-58
2022/02/11 08:45:27;;;;;;;25.80;8.65;;;;;;;3.22;81.74;100414.56;5025750;28;20042;-58
2022/02/11 08:47:53;;;;;;;16.75;4.85;;;;;;;3.15;81.79;100412.72;5013234;28;20033;-58
2022/02/11 08:50:19;;;;;;;9.95;3.22;;;;;;;3.22;80.79;100414.56;5024611;28;20025;-58
2022/02/11 08:52:45;;;;;;;15.57;3.55;;;;;;;3.15;81.02;100429.44;5014643;28;20542;-59
2022/02/11 08:55:10;;;;;;;15.65;3.83;;;;;;;3.20;81.86;100427.13;5024115;28;20050;-58
2022/02/11 08:57:44;;;;;;;19.50;4.25;;;;;;;3.30;80.45;100431.44;5024123;28;20582;-58
2022/02/11 09:00:10;;;;;;;17.15;4.72;;;;;;;3.31;81.05;100441.88;5021874;28;20029;-59
2022/02/11 09:02:36;;;;;;;22.48;5.10;;;;;;;3.24;81.01;100448.81;5023978;28;20025;-60
2022/02/11 09:05:03;;;;;;;18.38;4.93;;;;;;;3.33;80.89;100452.31;5016607;28;20022;-60
2022/02/11 09:07:29;;;;;;;23.65;4.38;;;;;;;3.44;80.38;100459.91;5030740;28;20539;-58
2022/02/11 09:09:54;;;;;;;18.25;4.93;;;;;;;3.42;81.38;100457.44;5024859;28;20045;-58
2022/02/11 09:12:20;;;;;;;24.77;5.72;;;;;;;3.36;81.01;100467.88;5014218;28;20077;-60
2022/02/11 09:14:45;;;;;;;23.70;5.25;;;;;;;3.49;79.94;100473.50;5025787;28;20026;-58
2022/02/11 09:17:11;;;;;;;27.10;5.90;;;;;;;3.57;78.95;100476.16;5012839;28;20045;-58
2022/02/11 09:19:36;;;;;;;25.25;4.63;;;;;;;3.72;79.13;100478.13;5015864;28;20045;-59
2022/02/11 09:22:02;;;;;;;20.02;4.13;;;;;;;3.77;77.77;100484.59;5018336;28;20099;-59
2022/02/11 09:24:27;;;;;;;25.38;5.63;;;;;;;3.94;77.56;100487.22;5018613;28;20052;-58
2022/02/11 09:26:53;;;;;;;21.45;4.20;;;;;;;4.19;76.45;100486.16;5012267;28;20046;-59
2022/02/11 09:29:18;;;;;;;37.65;8.20;;;;;;;4.36;75.95;100492.25;5010956;28;20038;-58
2022/02/11 09:31:44;;;;;;;20.80;5.28;;;;;;;4.08;77.41;100510.41;5009212;28;20072;-58
2022/02/11 09:34:12;;;;;;;24.67;4.47;;;;;;;3.85;78.53;100505.81;5022645;28;20052;-58
2022/02/11 09:36:39;;;;;;;18.15;4.35;;;;;;;3.92;78.91;100521.03;5017970;28;20851;-59
2022/02/11 09:39:06;;;;;;;27.58;7.10;;;;;;;3.94;78.91;100508.44;5013189;28;20029;-60
2022/02/11 09:41:31;;;;;;;16.20;4.55;;;;;;;4.04;77.72;100517.91;5014218;28;20124;-58
2022/02/11 09:44:00;;;;;;;23.50;5.20;;;;;;;4.30;77.10;100530.13;5010209;28;20377;-58
2022/02/11 09:46:30;;;;;;;24.83;3.72;;;;;;;4.32;76.01;100520.16;5013922;28;20468;-58
2022/02/11 09:48:59;;;;;;;21.17;3.80;;;;;;;4.16;75.60;100536.09;5000406;28;20148;-60
2022/02/11 09:51:25;;;;;;;18.17;3.92;;;;;;;4.24;74.70;100531.63;5015360;28;20090;-59
2022/02/11 09:53:51;;;;;;;21.55;3.70;;;;;;;5.12;72.46;100545.72;5009528;28;20048;-60
2022/02/11 09:56:16;;;;;;;15.65;3.00;;;;;;;5.62;71.47;100560.38;5016507;28;20104;-58
2022/02/11 09:58:42;;;;;;;16.88;3.50;;;;;;;5.46;72.23;100555.16;5016601;28;20021;-59
2022/02/11 10:01:07;;;;;;;18.73;3.60;;;;;;;5.26;72.95;100550.28;5009257;28;20164;-59
2022/02/11 10:03:33;;;;;;;18.73;3.60;;;;;;;6.04;70.10;100561.69;5020079;28;20084;-59
2022/02/11 10:06:05;;;;;;;19.77;4.25;;;;;;;5.99;67.38;100553.44;5016337;28;20041;-59
2022/02/11 10:08:34;;;;;;;24.40;3.45;;;;;;;5.55;69.64;100552.25;5018665;28;20033;-59
2022/02/11 10:11:00;;;;;;;16.35;4.00;;;;;;;5.84;68.96;100570.16;5020959;28;20046;-59
2022/02/11 10:13:31;;;;;;;15.07;4.07;;;;;;;6.62;65.20;100576.09;5014015;28;20163;-59
2022/02/11 10:16:08;;;;;;;14.15;3.20;;;;;;;5.32;67.73;100584.16;5009375;28;20069;-59
2022/02/11 10:18:35;;;;;;;19.50;3.20;;;;;;;6.50;65.27;100592.72;5019253;28;20033;-59
2022/02/11 10:21:02;;;;;;;15.98;3.45;;;;;;;6.78;65.77;100603.56;5025942;28;20041;-59
2022/02/11 10:23:32;;;;;;;14.15;3.10;;;;;;;5.99;66.34;100606.66;5023551;28;20112;-59
2022/02/11 10:25:59;;;;;;;21.15;4.10;;;;;;;6.46;65.14;100613.56;5022280;28;20124;-59
2022/02/11 10:28:35;;;;;;;17.92;3.53;;;;;;;6.64;64.30;100619.38;5015633;28;20033;-59
2022/02/11 10:31:12;;;;;;;22.20;3.40;;;;;;;5.63;66.58;100628.50;5007602;28;20520;-58
2022/02/11 10:33:53;;;;;;;20.27;3.50;;;;;;;5.32;69.01;100632.00;5001562;28;20076;-61
2022/02/11 10:36:40;;;;;;;17.40;3.25;;;;;;;6.16;65.08;100645.44;4996138;28;20046;-60
2022/02/11 10:39:10;;;;;;;13.50;3.67;;;;;;;5.55;65.21;100648.00;4986645;28;20457;-59
2022/02/11 10:41:38;;;;;;;25.55;3.80;;;;;;;5.36;69.38;100651.09;4993110;28;20052;-59
2022/02/11 10:44:11;;;;;;;22.95;4.28;;;;;;;5.76;66.29;100654.53;4998323;28;20026;-59
2022/02/11 10:46:40;;;;;;;20.35;3.50;;;;;;;6.45;64.89;100652.69;4997037;28;20077;-59
2022/02/11 10:49:07;;;;;;;25.52;4.10;;;;;;;6.68;63.23;100649.13;5000516;28;20033;-59
2022/02/11 10:51:33;;;;;;;21.98;3.72;;;;;;;5.83;65.08;100643.00;4996542;28;20373;-58
2022/02/11 10:53:59;;;;;;;19.60;3.33;;;;;;;6.11;65.92;100653.13;4977326;28;20065;-60
2022/02/11 10:56:25;;;;;;;18.45;3.25;;;;;;;6.13;65.62;100656.47;4994924;28;20057;-58
2022/02/11 10:58:57;;;;;;;14.85;3.08;;;;;;;6.41;64.42;100655.88;4992273;28;20046;-60
2022/02/11 11:01:27;;;;;;;18.92;3.70;;;;;;;5.88;66.63;100657.63;5001763;28;20589;-59
2022/02/11 11:03:52;;;;;;;17.73;3.53;;;;;;;6.08;64.31;100647.34;4999738;28;20487;-61
2022/02/11 11:06:18;;;;;;;14.85;3.10;;;;;;;6.33;63.33;100642.66;4989680;28;20414;-60
2022/02/11 11:09:03;;;;;;;20.10;3.15;;;;;;;6.13;63.75;100647.66;4992596;28;20019;-60
2022/02/11 11:11:28;;;;;;;19.42;3.50;;;;;;;6.45;62.19;100639.38;4995485;28;20084;-59
2022/02/11 11:13:54;;;;;;;20.33;3.75;;;;;;;5.88;64.82;100641.66;4997767;28;20030;-59
2022/02/11 11:16:20;;;;;;;16.90;3.33;;;;;;;5.59;65.13;100646.66;5000980;28;20546;-59
2022/02/11 11:18:45;;;;;;;20.90;3.33;;;;;;;5.49;66.63;100656.69;4997951;28;20026;-59
2022/02/11 11:21:11;;;;;;;16.88;3.92;;;;;;;4.54;73.97;100660.16;4997142;28;20042;-60
2022/02/11 11:23:41;;;;;;;16.20;3.22;;;;;;;4.18;77.99;100690.69;5017570;28;20073;-60
2022/02/11 11:26:09;;;;;;;12.35;2.65;;;;;;;3.83;73.18;100684.66;4985498;28;20038;-60
2022/02/11 11:28:42;;;;;;;17.02;2.65;;;;;;;3.99;72.48;100682.03;5003291;28;20026;-60
2022/02/11 11:31:27;;;;;;;16.88;2.95;;;;;;;4.14;72.48;100668.13;4998556;28;20046;-59
2022/02/11 11:34:15;;;;;;;14.18;3.03;;;;;;;4.34;71.04;100688.03;5004401;28;20072;-59
2022/02/11 11:37:05;;;;;;;7.85;2.33;;;;;;;4.19;71.08;100684.38;4999630;28;20054;-59
2022/02/11 11:39:30;;;;;;;26.67;3.45;;;;;;;4.20;71.03;100678.91;4995753;28;20125;-59
2022/02/11 11:42:10;;;;;;;14.45;2.92;;;;;;;4.42;70.34;100682.72;4995871;28;20054;-59
2022/02/11 11:44:45;;;;;;;13.00;2.40;;;;;;;5.13;68.47;100685.56;4995779;28;20030;-59
2022/02/11 11:47:27;;;;;;;23.42;3.08;;;;;;;5.36;68.48;100683.00;5012604;28;20049;-59
2022/02/11 11:49:53;;;;;;;9.13;2.13;;;;;;;5.43;66.55;100686.63;4998728;28;20026;-59
2022/02/11 11:52:20;;;;;;;14.43;2.85;;;;;;;5.69;66.44;100689.00;5002102;28;20037;-59
2022/02/11 11:54:46;;;;;;;23.73;2.92;;;;;;;5.69;65.99;100691.66;5001799;28;20061;-59
2022/02/11 11:57:17;;;;;;;11.05;2.45;;;;;;;6.20;66.01;100692.00;4996225;28;20088;-59
2022/02/11 11:59:49;;;;;;;16.30;2.78;;;;;;;6.10;66.93;100690.59;5012853;28;20092;-59
2022/02/11 12:02:20;;;;;;;25.30;3.15;;;;;;;6.28;63.33;100695.63;4992286;28;20356;-59
2022/02/11 12:04:53;;;;;;;21.45;3.80;;;;;;;6.26;63.58;100686.00;5001486;28;20044;-59
2022/02/11 12:07:33;;;;;;;16.13;2.85;;;;;;;5.84;64.22;100700.56;5007154;28;20046;-59
2022/02/11 12:09:59;;;;;;;25.45;4.15;;;;;;;5.84;65.99;100697.03;5006433;28;20859;-59
2022/02/11 12:12:29;;;;;;;12.45;2.65;;;;;;;5.13;66.29;100701.53;5002995;28;20501;-59
2022/02/11 12:15:00;;;;;;;17.58;3.33;;;;;;;5.19;66.31;100706.16;4998110;28;20030;-59
2022/02/11 12:17:26;;;;;;;21.98;3.90;;;;;;;5.02;66.25;100709.84;5001423;28;20057;-59
2022/02/11 12:19:52;;;;;;;25.20;3.53;;;;;;;4.84;66.48;100707.41;5004907;28;20151;-59
2022/02/11 12:22:18;;;;;;;26.42;3.60;;;;;;;4.81;66.87;100716.53;5000785;28;20048;-59
2022/02/11 12:27:35;;;;;;;27.75;3.83;;;;;;;4.65;68.17;100713.91;5000448;28;20080;-59
2022/02/11 12:30:16;;;;;;;20.60;3.55;;;;;;;4.43;68.60;100718.88;5005686;28;20026;-58
2022/02/11 12:32:46;;;;;;;20.65;3.15;;;;;;;4.57;70.38;100727.19;4999550;28;20045;-59
2022/02/11 12:35:14;;;;;;;;;;;;;;;4.88;68.05;100717.53;4992810;28;20022;-59
2022/02/11 12:37:41;;;;;;;21.80;3.40;;;;;;;5.48;66.79;100718.03;4994775;28;19968;-59
2022/02/11 12:40:34;;;;;;;17.30;3.33;;;;;;;5.63;65.40;100726.94;5000669;28;20056;-59
2022/02/11 12:43:01;;;;;;;18.50;3.60;;;;;;;5.28;67.29;100723.75;4991109;28;20044;-59
2022/02/11 12:45:29;;;;;;;27.90;3.90;;;;;;;5.39;65.41;100728.69;4998092;28;20101;-59
2022/02/11 12:47:55;;;;;;;20.42;4.05;;;;;;;5.55;64.93;100721.66;4999175;28;20651;-59
2022/02/11 12:50:22;;;;;;;26.23;3.63;;;;;;;5.67;64.29;100736.22;4999652;28;20488;-59
2022/02/11 12:52:48;;;;;;;19.95;3.08;;;;;;;5.90;62.45;100730.13;4995668;28;20037;-59
2022/02/11 12:55:19;;;;;;;20.35;2.90;;;;;;;5.63;63.21;100730.41;5004269;28;20046;-59
2022/02/11 12:57:56;;;;;;;17.80;3.60;;;;;;;5.97;63.02;100726.63;4996331;28;20111;-59
2022/02/11 13:00:26;;;;;;;16.25;3.92;;;;;;;6.07;62.35;100723.72;5005865;28;20054;-59
2022/02/11 13:02:55;;;;;;;18.73;2.85;;;;;;;6.14;61.71;100716.69;5001398;28;20431;-59
2022/02/11 13:05:23;;;;;;;28.15;4.07;;;;;;;6.19;59.95;100717.00;5002960;28;20146;-58
2022/02/11 13:07:49;;;;;;;12.50;2.70;;;;;;;6.41;60.50;100717.16;5002390;28;20032;-59
2022/02/11 13:10:20;;;;;;;33.95;3.72;;;;;;;6.55;59.63;100713.72;4990600;28;20121;-59
2022/02/11 13:12:45;;;;;;;18.15;3.28;;;;;;;6.52;58.70;100719.41;4998947;28;20025;-59
2022/02/11 13:15:13;;;;;;;14.93;3.08;;;;;;;6.35;61.21;100717.88;5005205;28;20095;-59
2022/02/11 13:17:39;;;;;;;35.47;4.05;;;;;;;6.20;60.73;100725.81;4998855;28;20026;-59
2022/02/11 13:20:05;;;;;;;20.70;3.20;;;;;;;5.65;61.19;100716.13;4996801;28;20058;-58
2022/02/11 13:22:31;;;;;;;22.65;3.58;;;;;;;5.48;61.39;100736.63;5002150;28;20048;-59
2022/02/11 13:24:56;;;;;;;18.50;3.63;;;;;;;4.99;66.56;100748.22;5000904;28;20392;-59
2022/02/11 13:27:50;;;;;;;24.48;3.10;;;;;;;3.99;74.01;100780.19;4997436;28;20034;-59
2022/02/11 13:30:30;;;;;;;25.52;3.20;;;;;;;3.45;76.78;100780.50;4997730;28;20026;-60
2022/02/11 13:32:57;;;;;;;22.23;3.95;;;;;;;3.13;81.04;100786.44;4991828;28;20091;-58
2022/02/11 13:35:23;;;;;;;18.02;3.05;;;;;;;2.77;84.86;100785.66;5001893;28;20042;-58
2022/02/11 13:37:51;;;;;;;23.65;3.30;;;;;;;2.79;86.02;100787.19;5000137;28;20037;-59
2022/02/11 13:40:23;;;;;;;14.30;3.10;;;;;;;3.07;86.40;100787.06;4999852;28;20025;-59
2022/02/11 13:43:04;;;;;;;15.40;2.85;;;;;;;3.02;86.50;100786.69;4989289;28;20037;-59
2022/02/11 13:45:30;;;;;;;16.52;3.47;;;;;;;3.32;85.87;100785.41;4998906;28;20497;-59
2022/02/11 13:48:01;;;;;;;15.57;3.28;;;;;;;3.48;85.89;100789.13;5001253;28;20058;-59
2022/02/11 13:50:27;;;;;;;19.95;3.47;;;;;;;3.66;84.62;100787.22;4996311;28;20048;-59
2022/02/11 13:53:06;;;;;;;18.60;3.78;;;;;;;3.77;83.60;100794.03;4998430;28;20022;-60
2022/02/11 13:55:32;;;;;;;17.60;3.50;;;;;;;3.79;82.48;100797.38;4985376;28;20771;-60
2022/02/11 13:58:12;;;;;;;13.38;3.22;;;;;;;4.00;80.60;100795.13;4989616;28;20041;-60
2022/02/11 14:00:38;;;;;;;20.85;3.03;;;;;;;3.88;80.87;100794.59;4983280;28;20163;-60
2022/02/11 14:03:04;;;;;;;20.30;3.28;;;;;;;4.03;78.32;100800.13;4984167;28;20042;-59
2022/02/11 14:05:31;;;;;;;14.88;3.08;;;;;;;3.99;78.13;100790.81;4985848;28;20127;-60
2022/02/11 14:07:56;;;;;;;27.13;3.90;;;;;;;3.98;77.89;100805.06;4994052;28;20034;-58
2022/02/11 14:10:22;;;;;;;22.52;3.50;;;;;;;3.99;78.02;100803.25;4991640;28;20084;-58
2022/02/11 14:12:47;;;;;;;24.77;3.22;;;;;;;3.90;73.80;100807.72;4989580;28;20207;-58
2022/02/11 14:15:12;;;;;;;14.65;2.88;;;;;;;4.06;71.18;100809.56;4985033;28;20026;-60
2022/02/11 14:17:40;;;;;;;25.33;3.88;;;;;;;4.08;71.40;100819.03;4992888;28;20041;-58
2022/02/11 14:20:06;;;;;;;19.10;2.63;;;;;;;4.34;69.74;100823.41;5000918;28;20033;-58
2022/02/11 14:22:32;;;;;;;22.58;3.38;;;;;;;4.38;67.87;100818.63;4980263;28;20045;-58
2022/02/11 14:25:00;;;;;;;23.40;2.78;;;;;;;4.61;67.76;100824.13;5001513;28;20049;-58
2022/02/11 14:27:25;;;;;;;13.15;2.72;;;;;;;4.85;67.50;100825.97;4993135;28;20061;-58
2022/02/11 14:29:51;;;;;;;24.65;3.08;;;;;;;4.82;65.60;100823.63;5000317;28;20038;-60
2022/02/11 14:32:17;;;;;;;23.98;2.72;;;;;;;5.01;66.27;100825.13;4997148;28;20038;-58
2022/02/11 14:34:42;;;;;;;24.58;4.13;;;;;;;5.21;67.20;100837.06;4999764;28;20034;-61
2022/02/11 14:37:08;;;;;;;20.15;3.75;;;;;;;3.35;72.32;100838.09;4994353;28;20500;-59
2022/02/11 14:39:34;;;;;;;13.38;3.22;;;;;;;3.18;77.77;100850.38;4997182;28;20037;-60
2022/02/11 14:42:02;;;;;;;15.43;3.05;;;;;;;2.96;80.64;100849.06;4997185;28;20046;-60
2022/02/11 14:44:32;;;;;;;13.35;3.45;;;;;;;2.91;83.47;100845.22;4998490;28;20026;-59
2022/02/11 14:46:59;;;;;;;21.77;3.97;;;;;;;2.81;83.77;100846.13;4998432;28;20038;-59
2022/02/11 14:49:24;;;;;;;17.35;3.17;;;;;;;2.74;83.78;100845.06;5003350;28;20030;-60
2022/02/11 14:51:53;;;;;;;17.35;3.50;;;;;;;2.91;85.55;100855.81;4997408;28;20042;-60
2022/02/11 14:54:19;;;;;;;18.27;3.97;;;;;;;2.77;85.01;100844.78;4996724;28;20175;-60
2022/02/11 14:56:44;;;;;;;21.20;3.97;;;;;;;3.38;84.08;100847.56;4990789;28;20121;-60
2022/02/11 14:59:10;;;;;;;19.88;3.53;;;;;;;3.23;82.74;100849.94;4987214;28;20038;-60
2022/02/11 15:01:36;;;;;;;22.48;4.03;;;;;;;3.26;82.94;100849.63;4986549;28;20674;-60
2022/02/11 15:04:01;;;;;;;20.98;3.45;;;;;;;3.39;83.47;100842.06;4986197;28;20145;-62
2022/02/11 15:06:27;;;;;;;22.20;3.38;;;;;;;3.52;82.20;100849.63;4981904;28;20046;-60
2022/02/11 15:08:52;;;;;;;13.48;3.20;;;;;;;3.34;81.18;100856.78;4991078;28;20049;-60
2022/02/11 15:11:18;;;;;;;21.30;3.60;;;;;;;3.45;80.75;100864.50;4984953;28;20053;-60
2022/02/11 15:13:44;;;;;;;18.88;3.40;;;;;;;3.35;79.79;100859.28;4989591;28;20034;-60
2022/02/11 15:16:09;;;;;;;18.10;3.50;;;;;;;3.22;78.91;100854.41;4999990;28;20053;-59
2022/02/11 15:18:35;;;;;;;21.88;3.40;;;;;;;3.37;80.39;100867.06;4992616;28;20037;-60